sensor_id;sensor_type;location;lat;lon;timestamp;P1;durP1;ratioP1;P2;durP2;ratioP2
16760;SDS011;8498;52.516;13.790;2022-08-23T00:01:49;3.53;;;3.10;;
16760;SDS011;8498;52.516;13.790;2022-08-23T00:07:14;6.18;;;3.42;;
16760;SDS011;8498;52.516;13.790;2022-08-23T00:12:37;6.18;;;3.33;;
16760;SDS011;8498;52.516;13.790;2022-08-23T00:18:01;5.78;;;2.83;;
16760;SDS011;8498;52.516;13.790;2022-08-23T00:23:23;3.55;;;3.25;;
16760;SDS011;8498;52.516;13.790;2022-08-23T00:28:46;3.28;;;3.00;;
16760;SDS011;8498;52.516;13.790;2022-08-23T00:34:10;3.90;;;3.00;;
16760;SDS011;8498;52.516;13.790;2022-08-23T00:39:36;3.30;;;2.70;;
16760;SDS011;8498;52.516;13.790;2022-08-23T00:45:00;4.60;;;3.10;;
16760;SDS011;8498;52.516;13.790;2022-08-23T00:50:48;3.72;;;2.95;;
16760;SDS011;8498;52.516;13.790;2022-08-23T00:56:19;7.65;;;3.25;;
16760;SDS011;8498;52.516;13.790;2022-08-23T01:01:46;6.32;;;3.70;;
16760;SDS011;8498;52.516;13.790;2022-08-23T01:12:40;3.78;;;3.47;;
16760;SDS011;8498;52.516;13.790;2022-08-23T01:18:11;5.85;;;3.50;;
16760;SDS011;8498;52.516;13.790;2022-08-23T01:23:48;4.72;;;3.72;;
16760;SDS011;8498;52.516;13.790;2022-08-23T01:29:13;7.88;;;3.90;;
16760;SDS011;8498;52.516;13.790;2022-08-23T01:34:38;8.70;;;3.53;;
16760;SDS011;8498;52.516;13.790;2022-08-23T01:40:12;3.60;;;3.30;;
16760;SDS011;8498;52.516;13.790;2022-08-23T01:45:36;5.40;;;3.83;;
16760;SDS011;8498;52.516;13.790;2022-08-23T01:51:02;7.38;;;3.78;;
16760;SDS011;8498;52.516;13.790;2022-08-23T01:56:25;6.13;;;3.55;;
16760;SDS011;8498;52.516;13.790;2022-08-23T02:02:02;6.75;;;3.67;;
16760;SDS011;8498;52.516;13.790;2022-08-23T02:07:26;6.10;;;4.03;;
16760;SDS011;8498;52.516;13.790;2022-08-23T02:12:50;8.75;;;3.63;;
16760;SDS011;8498;52.516;13.790;2022-08-23T02:18:16;8.93;;;4.28;;
16760;SDS011;8498;52.516;13.790;2022-08-23T02:23:40;4.03;;;3.60;;
16760;SDS011;8498;52.516;13.790;2022-08-23T02:29:03;6.22;;;3.53;;
16760;SDS011;8498;52.516;13.790;2022-08-23T02:34:27;3.70;;;3.40;;
16760;SDS011;8498;52.516;13.790;2022-08-23T02:39:50;4.03;;;3.63;;
16760;SDS011;8498;52.516;13.790;2022-08-23T02:45:13;5.43;;;3.25;;
16760;SDS011;8498;52.516;13.790;2022-08-23T02:50:40;5.57;;;3.85;;
16760;SDS011;8498;52.516;13.790;2022-08-23T02:56:03;11.00;;;3.72;;
16760;SDS011;8498;52.516;13.790;2022-08-23T03:01:38;7.25;;;3.67;;
16760;SDS011;8498;52.516;13.790;2022-08-23T03:07:13;5.03;;;3.70;;
16760;SDS011;8498;52.516;13.790;2022-08-23T03:12:36;7.03;;;3.65;;
16760;SDS011;8498;52.516;13.790;2022-08-23T03:17:59;9.20;;;3.90;;
16760;SDS011;8498;52.516;13.790;2022-08-23T03:23:23;5.60;;;3.63;;
16760;SDS011;8498;52.516;13.790;2022-08-23T03:28:46;4.97;;;3.63;;
16760;SDS011;8498;52.516;13.790;2022-08-23T03:34:08;9.25;;;3.58;;
16760;SDS011;8498;52.516;13.790;2022-08-23T03:39:32;5.65;;;3.50;;
16760;SDS011;8498;52.516;13.790;2022-08-23T03:44:55;4.28;;;3.63;;
16760;SDS011;8498;52.516;13.790;2022-08-23T03:50:23;9.82;;;4.25;;
16760;SDS011;8498;52.516;13.790;2022-08-23T03:55:47;5.15;;;3.83;;
16760;SDS011;8498;52.516;13.790;2022-08-23T04:01:11;7.85;;;4.07;;
16760;SDS011;8498;52.516;13.790;2022-08-23T04:06:34;7.45;;;3.83;;
16760;SDS011;8498;52.516;13.790;2022-08-23T04:11:56;6.72;;;3.95;;
16760;SDS011;8498;52.516;13.790;2022-08-23T04:17:19;6.63;;;4.00;;
16760;SDS011;8498;52.516;13.790;2022-08-23T04:22:43;9.67;;;4.60;;
16760;SDS011;8498;52.516;13.790;2022-08-23T04:28:08;9.80;;;4.93;;
16760;SDS011;8498;52.516;13.790;2022-08-23T04:33:31;6.40;;;4.68;;
16760;SDS011;8498;52.516;13.790;2022-08-23T04:38:55;8.07;;;4.80;;
16760;SDS011;8498;52.516;13.790;2022-08-23T04:44:18;8.15;;;5.45;;
16760;SDS011;8498;52.516;13.790;2022-08-23T04:49:43;8.63;;;5.85;;
16760;SDS011;8498;52.516;13.790;2022-08-23T04:55:08;10.18;;;5.63;;
16760;SDS011;8498;52.516;13.790;2022-08-23T05:00:44;6.40;;;4.85;;
16760;SDS011;8498;52.516;13.790;2022-08-23T05:06:16;7.22;;;4.00;;
16760;SDS011;8498;52.516;13.790;2022-08-23T05:11:39;6.32;;;4.65;;
16760;SDS011;8498;52.516;13.790;2022-08-23T05:17:02;8.85;;;4.85;;
16760;SDS011;8498;52.516;13.790;2022-08-23T05:22:26;9.18;;;5.07;;
16760;SDS011;8498;52.516;13.790;2022-08-23T05:28:11;8.90;;;5.13;;
16760;SDS011;8498;52.516;13.790;2022-08-23T05:33:35;8.30;;;4.70;;
16760;SDS011;8498;52.516;13.790;2022-08-23T05:38:59;8.73;;;4.88;;
16760;SDS011;8498;52.516;13.790;2022-08-23T05:44:23;6.18;;;4.20;;
16760;SDS011;8498;52.516;13.790;2022-08-23T05:49:45;6.90;;;3.67;;
16760;SDS011;8498;52.516;13.790;2022-08-23T05:55:08;11.88;;;4.60;;
16760;SDS011;8498;52.516;13.790;2022-08-23T06:00:34;6.82;;;4.05;;
16760;SDS011;8498;52.516;13.790;2022-08-23T06:06:02;5.57;;;4.05;;
16760;SDS011;8498;52.516;13.790;2022-08-23T06:11:27;6.57;;;4.20;;
16760;SDS011;8498;52.516;13.790;2022-08-23T06:16:50;8.25;;;4.10;;
16760;SDS011;8498;52.516;13.790;2022-08-23T06:22:20;5.68;;;3.92;;
16760;SDS011;8498;52.516;13.790;2022-08-23T06:27:43;4.85;;;3.65;;
16760;SDS011;8498;52.516;13.790;2022-08-23T06:33:05;6.47;;;3.78;;
16760;SDS011;8498;52.516;13.790;2022-08-23T06:38:40;3.38;;;3.08;;
16760;SDS011;8498;52.516;13.790;2022-08-23T06:44:21;8.05;;;3.97;;
16760;SDS011;8498;52.516;13.790;2022-08-23T06:49:51;4.72;;;3.42;;
16760;SDS011;8498;52.516;13.790;2022-08-23T06:55:39;10.93;;;4.60;;
16760;SDS011;8498;52.516;13.790;2022-08-23T07:07:29;9.93;;;4.00;;
16760;SDS011;8498;52.516;13.790;2022-08-23T07:13:03;9.23;;;4.47;;
16760;SDS011;8498;52.516;13.790;2022-08-23T07:18:26;10.07;;;3.83;;
16760;SDS011;8498;52.516;13.790;2022-08-23T07:23:48;8.55;;;4.10;;
16760;SDS011;8498;52.516;13.790;2022-08-23T07:29:11;7.15;;;3.60;;
16760;SDS011;8498;52.516;13.790;2022-08-23T07:34:35;9.98;;;3.90;;
16760;SDS011;8498;52.516;13.790;2022-08-23T07:39:58;4.75;;;3.33;;
16760;SDS011;8498;52.516;13.790;2022-08-23T07:45:21;6.57;;;3.35;;
16760;SDS011;8498;52.516;13.790;2022-08-23T07:50:52;4.63;;;3.38;;
16760;SDS011;8498;52.516;13.790;2022-08-23T07:56:21;3.38;;;3.05;;
16760;SDS011;8498;52.516;13.790;2022-08-23T08:02:02;7.00;;;3.08;;
16760;SDS011;8498;52.516;13.790;2022-08-23T08:07:26;7.68;;;3.72;;
16760;SDS011;8498;52.516;13.790;2022-08-23T08:12:54;6.03;;;3.00;;
16760;SDS011;8498;52.516;13.790;2022-08-23T08:18:18;3.88;;;3.10;;
16760;SDS011;8498;52.516;13.790;2022-08-23T08:24:00;3.72;;;2.72;;
16760;SDS011;8498;52.516;13.790;2022-08-23T08:29:38;3.75;;;2.78;;
16760;SDS011;8498;52.516;13.790;2022-08-23T08:35:03;4.55;;;2.60;;
16760;SDS011;8498;52.516;13.790;2022-08-23T08:40:28;6.88;;;2.90;;
16760;SDS011;8498;52.516;13.790;2022-08-23T08:51:48;6.32;;;2.50;;
16760;SDS011;8498;52.516;13.790;2022-08-23T08:57:18;4.57;;;2.35;;
16760;SDS011;8498;52.516;13.790;2022-08-23T09:02:48;4.10;;;2.47;;
16760;SDS011;8498;52.516;13.790;2022-08-23T09:20:02;2.97;;;2.63;;
16760;SDS011;8498;52.516;13.790;2022-08-23T09:25:30;4.20;;;2.38;;
16760;SDS011;8498;52.516;13.790;2022-08-23T09:31:02;3.80;;;2.20;;
16760;SDS011;8498;52.516;13.790;2022-08-23T09:36:26;4.07;;;2.35;;
16760;SDS011;8498;52.516;13.790;2022-08-23T09:41:55;3.47;;;3.03;;
16760;SDS011;8498;52.516;13.790;2022-08-23T09:47:19;4.28;;;2.60;;
16760;SDS011;8498;52.516;13.790;2022-08-23T09:52:48;4.70;;;2.83;;
16760;SDS011;8498;52.516;13.790;2022-08-23T09:58:55;6.38;;;3.25;;
16760;SDS011;8498;52.516;13.790;2022-08-23T10:04:10;4.18;;;3.17;;
16760;SDS011;8498;52.516;13.790;2022-08-23T10:09:39;3.72;;;3.30;;
16760;SDS011;8498;52.516;13.790;2022-08-23T10:15:02;6.13;;;3.50;;
16760;SDS011;8498;52.516;13.790;2022-08-23T10:25:54;5.03;;;3.60;;
16760;SDS011;8498;52.516;13.790;2022-08-23T10:31:32;6.57;;;3.50;;
16760;SDS011;8498;52.516;13.790;2022-08-23T10:37:29;3.70;;;3.38;;
16760;SDS011;8498;52.516;13.790;2022-08-23T10:48:29;5.35;;;3.88;;
16760;SDS011;8498;52.516;13.790;2022-08-23T10:59:31;4.22;;;3.20;;
16760;SDS011;8498;52.516;13.790;2022-08-23T11:15:57;4.93;;;3.95;;
16760;SDS011;8498;52.516;13.790;2022-08-23T11:32:21;3.65;;;3.35;;
16760;SDS011;8498;52.516;13.790;2022-08-23T11:37:58;4.50;;;3.28;;
16760;SDS011;8498;52.516;13.790;2022-08-23T11:43:37;4.63;;;3.58;;
16760;SDS011;8498;52.516;13.790;2022-08-23T12:12:08;3.95;;;3.13;;
16760;SDS011;8498;52.516;13.790;2022-08-23T12:23:12;7.47;;;3.72;;
16760;SDS011;8498;52.516;13.790;2022-08-23T12:28:41;6.38;;;3.38;;
16760;SDS011;8498;52.516;13.790;2022-08-23T12:39:54;4.32;;;2.80;;
16760;SDS011;8498;52.516;13.790;2022-08-23T12:45:21;3.28;;;3.08;;
16760;SDS011;8498;52.516;13.790;2022-08-23T12:50:50;4.25;;;2.97;;
16760;SDS011;8498;52.516;13.790;2022-08-23T12:56:19;5.57;;;3.42;;
16760;SDS011;8498;52.516;13.790;2022-08-23T13:01:53;5.47;;;3.40;;
16760;SDS011;8498;52.516;13.790;2022-08-23T13:07:17;4.90;;;2.90;;
16760;SDS011;8498;52.516;13.790;2022-08-23T13:12:43;7.45;;;3.28;;
16760;SDS011;8498;52.516;13.790;2022-08-23T13:18:07;5.65;;;3.08;;
16760;SDS011;8498;52.516;13.790;2022-08-23T13:23:30;3.10;;;2.80;;
16760;SDS011;8498;52.516;13.790;2022-08-23T13:29:04;5.18;;;3.33;;
16760;SDS011;8498;52.516;13.790;2022-08-23T13:34:43;3.22;;;2.97;;
16760;SDS011;8498;52.516;13.790;2022-08-23T13:40:12;10.20;;;3.50;;
16760;SDS011;8498;52.516;13.790;2022-08-23T13:45:52;6.13;;;3.40;;
16760;SDS011;8498;52.516;13.790;2022-08-23T13:57:00;7.57;;;3.97;;
16760;SDS011;8498;52.516;13.790;2022-08-23T14:02:34;7.30;;;4.32;;
16760;SDS011;8498;52.516;13.790;2022-08-23T14:07:58;4.80;;;3.80;;
16760;SDS011;8498;52.516;13.790;2022-08-23T14:13:21;4.43;;;3.50;;
16760;SDS011;8498;52.516;13.790;2022-08-23T14:18:48;7.15;;;4.28;;
16760;SDS011;8498;52.516;13.790;2022-08-23T14:24:30;3.50;;;3.30;;
16760;SDS011;8498;52.516;13.790;2022-08-23T14:29:52;4.60;;;4.10;;
16760;SDS011;8498;52.516;13.790;2022-08-23T14:35:15;7.25;;;4.28;;
16760;SDS011;8498;52.516;13.790;2022-08-23T14:40:38;6.32;;;4.38;;
16760;SDS011;8498;52.516;13.790;2022-08-23T14:46:00;5.82;;;4.43;;
16760;SDS011;8498;52.516;13.790;2022-08-23T14:51:29;5.80;;;4.38;;
16760;SDS011;8498;52.516;13.790;2022-08-23T14:56:54;4.20;;;3.78;;
16760;SDS011;8498;52.516;13.790;2022-08-23T15:02:24;4.90;;;3.60;;
16760;SDS011;8498;52.516;13.790;2022-08-23T15:07:47;5.65;;;3.85;;
16760;SDS011;8498;52.516;13.790;2022-08-23T15:13:09;7.45;;;3.92;;
16760;SDS011;8498;52.516;13.790;2022-08-23T15:18:48;3.58;;;3.28;;
16760;SDS011;8498;52.516;13.790;2022-08-23T15:24:12;4.47;;;3.05;;
16760;SDS011;8498;52.516;13.790;2022-08-23T15:29:34;3.88;;;2.58;;
16760;SDS011;8498;52.516;13.790;2022-08-23T15:34:57;4.10;;;2.70;;
16760;SDS011;8498;52.516;13.790;2022-08-23T15:40:20;3.58;;;3.08;;
16760;SDS011;8498;52.516;13.790;2022-08-23T15:45:44;3.28;;;2.78;;
16760;SDS011;8498;52.516;13.790;2022-08-23T15:51:06;5.85;;;3.35;;
16760;SDS011;8498;52.516;13.790;2022-08-23T15:56:36;3.90;;;3.08;;
16760;SDS011;8498;52.516;13.790;2022-08-23T16:02:02;6.68;;;3.30;;
16760;SDS011;8498;52.516;13.790;2022-08-23T16:07:25;6.07;;;3.00;;
16760;SDS011;8498;52.516;13.790;2022-08-23T16:12:48;5.63;;;3.08;;
16760;SDS011;8498;52.516;13.790;2022-08-23T16:18:10;3.20;;;2.90;;
16760;SDS011;8498;52.516;13.790;2022-08-23T16:23:33;2.95;;;2.60;;
16760;SDS011;8498;52.516;13.790;2022-08-23T16:28:56;4.78;;;2.78;;
16760;SDS011;8498;52.516;13.790;2022-08-23T16:34:20;3.72;;;3.00;;
16760;SDS011;8498;52.516;13.790;2022-08-23T16:39:43;5.10;;;3.13;;
16760;SDS011;8498;52.516;13.790;2022-08-23T16:45:06;3.50;;;3.20;;
16760;SDS011;8498;52.516;13.790;2022-08-23T16:50:29;6.80;;;3.33;;
16760;SDS011;8498;52.516;13.790;2022-08-23T16:55:53;5.15;;;3.80;;
16760;SDS011;8498;52.516;13.790;2022-08-23T17:01:16;5.32;;;3.33;;
16760;SDS011;8498;52.516;13.790;2022-08-23T17:06:40;5.88;;;3.53;;
16760;SDS011;8498;52.516;13.790;2022-08-23T17:12:04;4.35;;;3.85;;
16760;SDS011;8498;52.516;13.790;2022-08-23T17:17:26;4.43;;;3.90;;
16760;SDS011;8498;52.516;13.790;2022-08-23T17:22:48;4.82;;;3.70;;
16760;SDS011;8498;52.516;13.790;2022-08-23T17:28:12;3.25;;;3.05;;
16760;SDS011;8498;52.516;13.790;2022-08-23T17:33:35;5.65;;;3.65;;
16760;SDS011;8498;52.516;13.790;2022-08-23T17:38:58;3.95;;;3.55;;
16760;SDS011;8498;52.516;13.790;2022-08-23T17:44:21;3.83;;;3.25;;
16760;SDS011;8498;52.516;13.790;2022-08-23T17:49:45;8.10;;;3.88;;
16760;SDS011;8498;52.516;13.790;2022-08-23T17:55:10;5.60;;;3.17;;
16760;SDS011;8498;52.516;13.790;2022-08-23T18:00:34;6.20;;;3.45;;
16760;SDS011;8498;52.516;13.790;2022-08-23T18:05:58;3.58;;;3.28;;
16760;SDS011;8498;52.516;13.790;2022-08-23T18:11:21;8.48;;;3.95;;
16760;SDS011;8498;52.516;13.790;2022-08-23T18:16:43;3.97;;;3.25;;
16760;SDS011;8498;52.516;13.790;2022-08-23T18:22:06;4.82;;;3.40;;
16760;SDS011;8498;52.516;13.790;2022-08-23T18:27:29;10.95;;;3.90;;
16760;SDS011;8498;52.516;13.790;2022-08-23T18:33:14;8.15;;;3.40;;
16760;SDS011;8498;52.516;13.790;2022-08-23T18:38:52;5.00;;;3.28;;
16760;SDS011;8498;52.516;13.790;2022-08-23T18:44:16;7.07;;;3.80;;
16760;SDS011;8498;52.516;13.790;2022-08-23T18:49:39;4.18;;;3.75;;
16760;SDS011;8498;52.516;13.790;2022-08-23T18:55:02;4.00;;;3.60;;
16760;SDS011;8498;52.516;13.790;2022-08-23T19:00:25;5.72;;;3.72;;
16760;SDS011;8498;52.516;13.790;2022-08-23T19:05:48;9.05;;;4.47;;
16760;SDS011;8498;52.516;13.790;2022-08-23T19:11:12;6.18;;;4.10;;
16760;SDS011;8498;52.516;13.790;2022-08-23T19:16:36;7.05;;;3.92;;
16760;SDS011;8498;52.516;13.790;2022-08-23T19:22:00;5.18;;;4.68;;
16760;SDS011;8498;52.516;13.790;2022-08-23T19:27:23;8.20;;;4.82;;
16760;SDS011;8498;52.516;13.790;2022-08-23T19:32:48;9.00;;;4.65;;
16760;SDS011;8498;52.516;13.790;2022-08-23T19:38:10;6.78;;;4.70;;
16760;SDS011;8498;52.516;13.790;2022-08-23T19:43:35;5.38;;;4.70;;
16760;SDS011;8498;52.516;13.790;2022-08-23T19:49:01;9.40;;;5.47;;
16760;SDS011;8498;52.516;13.790;2022-08-23T19:54:28;14.35;;;5.47;;
16760;SDS011;8498;52.516;13.790;2022-08-23T19:59:55;7.32;;;5.10;;
16760;SDS011;8498;52.516;13.790;2022-08-23T20:05:19;8.63;;;5.80;;
16760;SDS011;8498;52.516;13.790;2022-08-23T20:10:42;7.88;;;5.32;;
16760;SDS011;8498;52.516;13.790;2022-08-23T20:16:09;9.70;;;4.85;;
16760;SDS011;8498;52.516;13.790;2022-08-23T20:21:34;5.78;;;4.63;;
16760;SDS011;8498;52.516;13.790;2022-08-23T20:27:02;6.05;;;5.15;;
16760;SDS011;8498;52.516;13.790;2022-08-23T20:32:27;5.10;;;4.53;;
16760;SDS011;8498;52.516;13.790;2022-08-23T20:37:52;6.68;;;4.75;;
16760;SDS011;8498;52.516;13.790;2022-08-23T20:43:14;8.18;;;5.13;;
16760;SDS011;8498;52.516;13.790;2022-08-23T20:48:38;6.35;;;4.82;;
16760;SDS011;8498;52.516;13.790;2022-08-23T20:54:03;9.10;;;6.30;;
16760;SDS011;8498;52.516;13.790;2022-08-23T20:59:27;8.20;;;5.40;;
16760;SDS011;8498;52.516;13.790;2022-08-23T21:04:49;7.22;;;5.30;;
16760;SDS011;8498;52.516;13.790;2022-08-23T21:10:13;8.20;;;5.47;;
16760;SDS011;8498;52.516;13.790;2022-08-23T21:15:36;9.35;;;5.80;;
16760;SDS011;8498;52.516;13.790;2022-08-23T21:20:58;9.00;;;5.63;;
16760;SDS011;8498;52.516;13.790;2022-08-23T21:26:21;9.35;;;5.80;;
16760;SDS011;8498;52.516;13.790;2022-08-23T21:31:44;6.18;;;5.38;;
16760;SDS011;8498;52.516;13.790;2022-08-23T21:37:09;10.52;;;5.95;;
16760;SDS011;8498;52.516;13.790;2022-08-23T21:42:31;8.52;;;5.70;;
16760;SDS011;8498;52.516;13.790;2022-08-23T21:47:54;8.02;;;5.65;;
16760;SDS011;8498;52.516;13.790;2022-08-23T21:53:18;9.52;;;6.00;;
16760;SDS011;8498;52.516;13.790;2022-08-23T21:58:40;6.82;;;5.90;;
16760;SDS011;8498;52.516;13.790;2022-08-23T22:04:04;8.60;;;5.18;;
16760;SDS011;8498;52.516;13.790;2022-08-23T22:09:28;7.65;;;5.15;;
16760;SDS011;8498;52.516;13.790;2022-08-23T22:14:52;8.20;;;5.80;;
16760;SDS011;8498;52.516;13.790;2022-08-23T22:20:15;6.18;;;5.60;;
16760;SDS011;8498;52.516;13.790;2022-08-23T22:25:39;7.47;;;5.72;;
16760;SDS011;8498;52.516;13.790;2022-08-23T22:31:03;7.95;;;5.40;;
16760;SDS011;8498;52.516;13.790;2022-08-23T22:36:27;6.32;;;5.40;;
16760;SDS011;8498;52.516;13.790;2022-08-23T22:41:51;8.65;;;5.50;;
16760;SDS011;8498;52.516;13.790;2022-08-23T22:47:15;7.75;;;5.22;;
16760;SDS011;8498;52.516;13.790;2022-08-23T22:52:37;6.80;;;5.05;;
16760;SDS011;8498;52.516;13.790;2022-08-23T22:57:59;10.45;;;5.45;;
16760;SDS011;8498;52.516;13.790;2022-08-23T23:03:22;5.38;;;4.70;;
16760;SDS011;8498;52.516;13.790;2022-08-23T23:08:45;6.05;;;4.50;;
16760;SDS011;8498;52.516;13.790;2022-08-23T23:14:08;5.55;;;4.35;;
16760;SDS011;8498;52.516;13.790;2022-08-23T23:19:32;5.80;;;4.45;;
16760;SDS011;8498;52.516;13.790;2022-08-23T23:25:13;7.53;;;4.32;;
16760;SDS011;8498;52.516;13.790;2022-08-23T23:30:35;5.28;;;4.78;;
16760;SDS011;8498;52.516;13.790;2022-08-23T23:35:58;4.85;;;4.30;;
16760;SDS011;8498;52.516;13.790;2022-08-23T23:41:20;7.13;;;4.25;;
16760;SDS011;8498;52.516;13.790;2022-08-23T23:46:43;4.20;;;3.80;;
16760;SDS011;8498;52.516;13.790;2022-08-23T23:52:10;4.25;;;3.85;;
16760;SDS011;8498;52.516;13.790;2022-08-23T23:57:33;4.25;;;3.72;;
